Time;durP1;ratioP1;P1;durP2;ratioP2;P2;SDS_P1;SDS_P2;PMS_P1;PMS_P2;Temp;Humidity;BMP_temperature;BMP_pressure;BME280_temperature;BME280_humidity;BME280_pressure;Samples;Min_cycle;Max_cycle;Signal;HPM_P1;HPM_P2
2022/03/27 00:01:06;;;;;;;;;46.75;36.25;;;;;13.77;42.20;102080.94;5126568;27;45385;-81
2022/03/27 00:03:32;;;;;;;;;42.00;37.00;;;;;13.71;42.66;102072.03;5129330;27;45459;-83
2022/03/27 00:05:58;;;;;;;;;45.50;36.50;;;;;13.66;42.14;102077.22;5123014;27;45488;-82
2022/03/27 00:08:24;;;;;;;;;47.25;36.00;;;;;13.63;42.68;102075.44;5126426;27;45431;-86
2022/03/27 00:13:33;;;;;;;;;50.25;39.75;;;;;13.62;42.33;102086.00;5122043;27;45358;-84
2022/03/27 00:15:59;;;;;;;;;47.50;39.75;;;;;13.58;43.03;102076.22;5117879;27;45521;-82
2022/03/27 00:18:24;;;;;;;;;41.75;37.50;;;;;13.51;43.22;102069.94;5123856;27;45016;-81
2022/03/27 00:20:52;;;;;;;;;47.00;38.00;;;;;13.53;43.17;102081.44;5125918;27;45350;-79
2022/03/27 00:23:18;;;;;;;;;50.00;39.00;;;;;13.38;42.71;102058.25;5126939;27;45431;-81
2022/03/27 00:25:45;;;;;;;;;50.50;42.00;;;;;13.49;43.04;102078.69;5124990;27;45437;-81
2022/03/27 00:28:11;;;;;;;;;46.75;37.75;;;;;13.15;42.77;102027.81;5122494;27;45297;-84
2022/03/27 00:30:38;;;;;;;;;46.75;38.75;;;;;13.35;43.44;102063.50;5123249;27;45407;-80
2022/03/27 00:33:03;;;;;;;;;40.50;34.25;;;;;13.39;42.85;102080.31;5126928;27;45315;-81
2022/03/27 00:35:29;;;;;;;;;27.00;19.00;;;;;13.41;43.07;102078.59;5129624;27;45412;-80
2022/03/27 00:37:54;;;;;;;;;50.25;39.50;;;;;13.38;43.60;102081.16;5128696;27;45478;-81
2022/03/27 00:40:19;;;;;;;;;42.25;36.75;;;;;13.32;43.74;102074.03;5122668;27;45128;-83
2022/03/27 00:42:45;;;;;;;;;48.50;39.25;;;;;13.16;43.41;102052.53;5119653;27;44900;-82
2022/03/27 00:45:10;;;;;;;;;43.75;39.50;;;;;13.05;43.16;102042.66;5124781;27;45718;-84
2022/03/27 00:47:36;;;;;;;;;46.75;39.00;;;;;13.20;44.04;102068.50;5124997;27;45442;-81
2022/03/27 00:50:02;;;;;;;;;50.00;40.75;;;;;13.19;43.74;102064.06;5126097;27;45382;-83
2022/03/27 00:52:28;;;;;;;;;47.75;41.00;;;;;13.22;43.63;102079.16;5118116;27;47423;-79
2022/03/27 00:54:56;;;;;;;;;49.50;37.75;;;;;13.18;43.59;102075.50;5119179;27;45225;-82
2022/03/27 00:57:22;;;;;;;;;53.50;42.25;;;;;13.08;43.98;102061.22;5122832;27;45338;-84
2022/03/27 00:59:47;;;;;;;;;58.75;42.50;;;;;13.13;44.13;102070.13;5122415;27;45478;-85
2022/03/27 01:02:14;;;;;;;;;47.25;38.75;;;;;12.90;43.98;102033.53;5117780;27;45797;-81
2022/03/27 01:04:44;;;;;;;;;46.50;39.50;;;;;13.09;44.80;102070.03;5122732;27;45321;-82
2022/03/27 01:07:16;;;;;;;;;50.25;39.75;;;;;13.07;44.88;102066.47;5122416;27;45433;-84
2022/03/27 01:09:44;;;;;;;;;50.25;39.00;;;;;13.02;44.44;102050.50;5114964;27;45430;-84
2022/03/27 01:12:21;;;;;;;;;48.75;39.25;;;;;13.03;44.51;102064.66;5127549;27;46091;-82
2022/03/27 01:14:47;;;;;;;;;34.75;29.25;;;;;13.01;44.86;102064.59;5124380;27;46330;-84
2022/03/27 01:17:21;;;;;;;;;49.00;40.00;;;;;12.98;44.35;102068.94;5119176;27;45412;-83
2022/03/27 01:19:49;;;;;;;;;53.00;43.25;;;;;12.97;44.73;102061.88;5122769;27;45318;-81
2022/03/27 01:22:17;;;;;;;;;43.00;36.50;;;;;12.90;44.93;102052.03;5118993;27;47240;-79
2022/03/27 01:24:43;;;;;;;;;49.25;42.25;;;;;12.93;45.20;102060.91;5124832;27;45379;-83
2022/03/27 01:27:09;;;;;;;;;48.25;41.00;;;;;12.88;44.64;102062.59;5127399;27;45889;-81
2022/03/27 01:29:35;;;;;;;;;48.50;40.00;;;;;12.86;45.71;102056.41;5121516;27;45482;-76
2022/03/27 01:32:01;;;;;;;;;50.50;39.50;;;;;12.75;45.36;102053.53;5119834;27;45343;-84
2022/03/27 01:34:27;;;;;;;;;43.00;36.25;;;;;12.82;45.53;102063.34;5117235;27;45501;-81
2022/03/27 01:36:52;;;;;;;;;41.75;37.75;;;;;12.82;45.45;102043.97;5119157;27;45405;-84
2022/03/27 01:39:18;;;;;;;;;44.50;36.75;;;;;12.80;45.31;102054.50;5117882;27;45450;-81
2022/03/27 01:41:44;;;;;;;;;54.00;40.50;;;;;12.80;44.99;102053.63;5111358;27;47024;-80
2022/03/27 01:44:16;;;;;;;;;47.75;39.75;;;;;12.71;45.74;102035.81;5117698;27;45474;-83
2022/03/27 01:46:43;;;;;;;;;56.00;44.25;;;;;12.73;46.26;102038.50;5115705;27;45485;-81
2022/03/27 01:49:11;;;;;;;;;49.00;40.00;;;;;12.63;46.04;102036.53;5131336;27;45352;-85
2022/03/27 01:51:37;;;;;;;;;48.00;39.75;;;;;12.65;45.96;102035.69;5121294;27;46409;-85
2022/03/27 01:54:04;;;;;;;;;31.25;30.75;;;;;12.62;46.09;102034.75;5113755;27;45417;-80
2022/03/27 01:56:30;;;;;;;;;53.25;43.00;;;;;12.57;46.25;102023.22;5113611;27;45660;-82
2022/03/27 01:58:56;;;;;;;;;55.75;42.25;;;;;12.57;45.92;102036.44;5112964;27;45483;-84
2022/03/27 02:01:22;;;;;;;;;46.25;37.00;;;;;12.32;46.70;101992.75;5113413;27;46731;-81
2022/03/27 02:03:48;;;;;;;;;54.75;44.50;;;;;12.41;45.79;102014.06;5117759;27;45349;-84
2022/03/27 02:06:15;;;;;;;;;51.25;41.50;;;;;12.32;46.46;101996.28;5109573;27;45600;-86
2022/03/27 02:08:42;;;;;;;;;49.75;41.75;;;;;12.47;46.56;102030.03;5112708;27;45573;-83
2022/03/27 02:11:08;;;;;;;;;53.00;41.25;;;;;12.45;46.43;102030.00;5111420;27;47399;-84
2022/03/27 02:13:34;;;;;;;;;50.00;40.50;;;;;12.43;47.38;102021.16;5117252;27;45328;-83
2022/03/27 02:16:02;;;;;;;;;50.75;40.25;;;;;12.34;46.59;102006.88;5112047;27;45510;-84
2022/03/27 02:18:32;;;;;;;;;48.25;36.00;;;;;12.40;46.64;102029.03;5087161;27;45871;-82
2022/03/27 02:21:00;;;;;;;;;43.25;36.75;;;;;12.37;47.05;102022.78;5114177;27;46161;-87
2022/03/27 02:23:26;;;;;;;;;48.50;39.75;;;;;12.32;46.87;102014.78;5125531;27;45322;-81
2022/03/27 02:25:55;;;;;;;;;51.00;42.25;;;;;12.37;47.33;102022.78;5125926;27;45860;-83
2022/03/27 02:28:21;;;;;;;;;47.50;38.25;;;;;12.34;46.67;102022.72;5113301;27;45598;-85
2022/03/27 02:30:47;;;;;;;;;39.00;36.75;;;;;12.01;47.83;101968.34;5115633;27;45395;-85
2022/03/27 02:33:12;;;;;;;;;53.00;41.75;;;;;12.31;48.13;102033.25;5116585;27;45217;-86
2022/03/27 02:35:38;;;;;;;;;49.75;41.25;;;;;12.30;47.25;102034.09;5115609;27;45464;-83
2022/03/27 02:38:07;;;;;;;;;49.25;42.00;;;;;12.18;47.71;102016.22;5114386;27;45190;-87
2022/03/27 02:40:34;;;;;;;;;48.50;39.75;;;;;12.18;48.07;102024.16;5117692;27;47009;-86
2022/03/27 02:42:59;;;;;;;;;50.25;40.50;;;;;12.24;48.22;102038.41;5120403;27;45436;-82
2022/03/27 02:45:28;;;;;;;;;48.50;41.25;;;;;12.17;48.69;102020.63;5118564;27;45514;-84
2022/03/27 02:47:55;;;;;;;;;44.75;40.25;;;;;12.22;47.80;102028.66;5122015;27;45461;-88
2022/03/27 02:50:20;;;;;;;;;51.75;41.75;;;;;12.21;48.20;102033.06;5120175;27;47084;-88
2022/03/27 02:52:46;;;;;;;;;46.25;37.50;;;;;12.03;47.79;101995.69;5121147;27;45586;-82
2022/03/27 02:55:12;;;;;;;;;53.75;40.50;;;;;12.17;48.38;102025.00;5119640;27;45887;-88
2022/03/27 02:57:38;;;;;;;;;45.25;39.00;;;;;12.05;48.69;102009.78;5118169;27;45441;-83
2022/03/27 03:00:06;;;;;;;;;47.00;39.50;;;;;12.15;48.02;102024.09;5129346;27;46104;-85
2022/03/27 03:02:32;;;;;;;;;51.25;41.50;;;;;12.05;48.52;102007.16;5126992;27;45205;-85
2022/03/27 03:04:57;;;;;;;;;52.25;43.00;;;;;12.14;48.03;102020.56;5120014;27;45506;-85
2022/03/27 03:07:23;;;;;;;;;44.25;34.00;;;;;12.10;48.17;102005.53;5127845;27;45212;-85
2022/03/27 03:09:49;;;;;;;;;41.75;37.00;;;;;12.16;48.19;102018.84;5118161;27;46087;-88
2022/03/27 03:12:14;;;;;;;;;45.25;39.25;;;;;12.15;48.57;102019.69;5116217;27;45578;-86
2022/03/27 03:14:40;;;;;;;;;45.50;37.00;;;;;12.11;48.56;102020.50;5116461;27;45530;-84
2022/03/27 03:17:08;;;;;;;;;51.25;38.00;;;;;12.05;49.13;102007.16;5125456;27;45426;-81
2022/03/27 03:19:33;;;;;;;;;51.75;38.25;;;;;12.02;48.23;102008.84;5116046;27;45408;-87
2022/03/27 03:21:59;;;;;;;;;47.75;37.75;;;;;12.09;48.27;102024.84;5118115;27;45528;-85
2022/03/27 03:24:25;;;;;;;;;42.75;37.00;;;;;12.11;48.14;102028.44;5119306;27;45503;-85
2022/03/27 03:26:52;;;;;;;;;44.50;36.00;;;;;12.02;48.35;102020.31;5115284;27;45381;-85
2022/03/27 03:29:17;;;;;;;;;46.00;37.50;;;;;12.02;49.39;102019.41;5121985;27;46169;-83
2022/03/27 03:31:43;;;;;;;;;47.00;40.25;;;;;12.04;49.27;102036.19;5118563;27;45449;-83
2022/03/27 03:34:09;;;;;;;;;49.00;37.25;;;;;11.99;48.78;102023.75;5129836;27;44755;-80
2022/03/27 03:36:34;;;;;;;;;43.50;36.50;;;;;11.83;48.87;102005.81;5125038;27;45152;-82
2022/03/27 03:39:00;;;;;;;;;31.25;31.25;;;;;11.82;48.64;102006.66;5119071;27;45703;-85
2022/03/27 03:41:26;;;;;;;;;45.25;39.25;;;;;11.91;49.07;102025.34;5114410;27;45458;-78
2022/03/27 03:43:51;;;;;;;;;43.75;36.00;;;;;11.79;48.82;102009.19;5119719;27;45487;-80
2022/03/27 03:46:17;;;;;;;;;48.00;40.00;;;;;11.86;49.34;102023.47;5114659;27;45486;-80
2022/03/27 03:48:42;;;;;;;;;47.00;36.75;;;;;11.82;49.93;102035.72;5109276;27;45378;-81
2022/03/27 03:51:07;;;;;;;;;44.00;33.75;;;;;11.75;49.68;102028.47;5117084;27;45489;-81
2022/03/27 03:53:33;;;;;;;;;44.25;35.50;;;;;11.75;49.78;102041.66;5116252;27;45367;-81
2022/03/27 03:55:58;;;;;;;;;47.50;37.50;;;;;11.70;49.90;102038.91;5118222;27;45399;-81
2022/03/27 03:58:24;;;;;;;;;36.00;32.25;;;;;11.64;50.36;102035.25;5113750;27;45444;-79
2022/03/27 04:00:50;;;;;;;;;42.25;37.25;;;;;11.61;50.29;102036.03;5114395;27;45440;-81
2022/03/27 04:03:16;;;;;;;;;46.25;36.75;;;;;11.61;49.81;102027.22;5114709;27;47046;-77
2022/03/27 04:05:42;;;;;;;;;44.00;34.50;;;;;11.61;50.11;102033.41;5119172;27;45202;-79
2022/03/27 04:08:07;;;;;;;;;41.75;36.75;;;;;11.44;51.08;102010.97;5117201;27;46613;-78
2022/03/27 04:10:34;;;;;;;;;50.75;37.50;;;;;11.57;50.41;102039.47;5122015;27;45268;-79
2022/03/27 04:13:00;;;;;;;;;44.50;37.25;;;;;11.53;50.59;102031.44;5117173;27;45190;-85
2022/03/27 04:15:25;;;;;;;;;43.25;37.25;;;;;11.53;50.26;102034.06;5115333;27;45538;-85
2022/03/27 04:17:52;;;;;;;;;41.00;36.25;;;;;11.50;50.87;102034.00;5116008;27;46020;-80
2022/03/27 04:20:18;;;;;;;;;37.00;34.25;;;;;11.50;51.13;102034.00;5109697;27;45326;-79
2022/03/27 04:22:45;;;;;;;;;42.75;33.75;;;;;11.54;50.52;102039.41;5115389;27;45341;-80
2022/03/27 04:25:12;;;;;;;;;41.25;37.50;;;;;11.51;50.25;102036.69;5114243;27;45456;-78
2022/03/27 04:27:38;;;;;;;;;40.50;36.50;;;;;11.48;50.48;102035.72;5116576;27;45431;-80
2022/03/27 04:30:09;;;;;;;;;43.50;38.75;;;;;11.37;50.58;102017.88;5114793;27;45557;-81
2022/03/27 04:32:38;;;;;;;;;34.25;32.25;;;;;11.45;50.64;102038.25;5112227;27;45496;-81
2022/03/27 04:35:06;;;;;;;;;43.25;37.50;;;;;11.29;50.17;102015.91;5108986;27;45408;-81
2022/03/27 04:37:31;;;;;;;;;44.50;36.50;;;;;11.37;50.68;102036.34;5114462;27;47586;-81
2022/03/27 04:40:02;;;;;;;;;48.75;35.50;;;;;11.40;51.09;102043.44;5118934;27;45356;-80
2022/03/27 04:42:28;;;;;;;;;43.50;34.25;;;;;11.15;51.29;102005.00;5116221;27;45634;-81
2022/03/27 04:44:54;;;;;;;;;36.75;33.25;;;;;11.35;51.68;102050.34;5111424;27;45405;-80
2022/03/27 04:47:20;;;;;;;;;44.75;38.00;;;;;11.26;51.21;102031.63;5121734;27;46161;-79
2022/03/27 04:49:45;;;;;;;;;46.50;38.50;;;;;11.31;51.53;102048.50;5117825;27;45780;-80
2022/03/27 04:52:11;;;;;;;;;34.25;29.50;;;;;11.28;51.30;102040.50;5109991;27;45492;-82
2022/03/27 04:54:37;;;;;;;;;27.00;27.00;;;;;11.29;51.14;102045.81;5115570;27;45580;-87
2022/03/27 04:57:03;;;;;;;;;42.00;36.00;;;;;11.19;51.41;102035.00;5113672;27;46107;-81
2022/03/27 04:59:28;;;;;;;;;45.50;35.75;;;;;11.23;51.79;102057.94;5113613;27;45337;-81
2022/03/27 05:01:54;;;;;;;;;38.25;33.50;;;;;11.21;51.40;102054.38;5110037;27;45462;-82
2022/03/27 05:04:19;;;;;;;;;36.50;34.75;;;;;11.20;51.51;102060.50;5112691;27;45435;-81
2022/03/27 05:06:44;;;;;;;;;41.50;36.00;;;;;11.11;51.84;102045.34;5106120;27;45432;-80
2022/03/27 05:09:10;;;;;;;;;40.25;36.25;;;;;11.14;51.81;102053.31;5117693;27;45479;-78
2022/03/27 05:11:36;;;;;;;;;38.50;34.50;;;;;11.15;52.51;102065.66;5117723;27;45917;-82
2022/03/27 05:14:02;;;;;;;;;44.75;35.25;;;;;11.12;52.25;102061.19;5107976;27;46375;-80
2022/03/27 05:16:27;;;;;;;;;38.75;36.00;;;;;11.11;51.94;102069.06;5115266;27;45494;-78
2022/03/27 05:18:52;;;;;;;;;50.25;37.25;;;;;10.91;52.31;102041.28;5104492;27;45222;-80
2022/03/27 05:21:18;;;;;;;;;49.75;40.50;;;;;11.06;52.17;102073.31;5119675;27;45184;-79
2022/03/27 05:23:43;;;;;;;;;47.75;36.00;;;;;10.95;52.68;102054.56;5116752;27;45303;-79
2022/03/27 05:26:09;;;;;;;;;37.00;32.75;;;;;10.99;52.27;102071.41;5116697;27;45982;-79
2022/03/27 05:28:34;;;;;;;;;38.75;36.25;;;;;10.98;52.66;102069.59;5096951;27;45480;-81
2022/03/27 05:31:03;;;;;;;;;41.75;38.00;;;;;10.87;52.26;102048.22;5111111;27;45554;-81
2022/03/27 05:33:29;;;;;;;;;39.50;35.25;;;;;10.77;52.26;102039.16;5118867;27;45437;-81
2022/03/27 05:35:54;;;;;;;;;39.75;34.25;;;;;10.82;52.32;102050.72;5117814;27;46257;-80
2022/03/27 05:38:20;;;;;;;;;39.50;36.25;;;;;10.92;52.28;102069.44;5117209;27;45437;-80
2022/03/27 05:40:45;;;;;;;;;45.25;39.50;;;;;10.90;52.48;102057.97;5122947;27;45954;-83
2022/03/27 05:43:11;;;;;;;;;47.75;41.25;;;;;10.78;52.12;102045.31;5122874;27;45930;-83
2022/03/27 05:45:38;;;;;;;;;46.50;38.25;;;;;10.88;52.47;102064.91;5118838;27;45895;-84
2022/03/27 05:48:04;;;;;;;;;49.50;37.25;;;;;10.93;52.63;102077.38;5121828;27;45281;-81
2022/03/27 05:50:31;;;;;;;;;42.75;35.50;;;;;10.79;52.56;102053.25;5118512;27;45465;-77
2022/03/27 05:52:57;;;;;;;;;44.25;38.00;;;;;10.93;52.96;102079.13;5118048;27;45455;-82
2022/03/27 05:55:23;;;;;;;;;42.00;34.25;;;;;10.81;52.37;102051.59;5112847;27;45549;-86
2022/03/27 05:57:49;;;;;;;;;55.75;38.75;;;;;10.65;52.83;102036.19;5127493;27;44883;-79
2022/03/27 06:00:21;;;;;;;;;50.25;38.25;;;;;10.91;52.48;102072.94;5120774;27;45517;-85
2022/03/27 06:02:50;;;;;;;;;44.25;37.00;;;;;10.90;53.02;102072.03;5116856;27;45345;-84
2022/03/27 06:05:18;;;;;;;;;39.75;36.75;;;;;11.00;52.63;102086.38;5117333;27;46080;-80
2022/03/27 06:07:48;;;;;;;;;43.00;37.00;;;;;11.03;52.68;102091.72;5116277;27;45564;-80
2022/03/27 06:10:15;;;;;;;;;46.25;37.00;;;;;11.04;52.44;102085.56;5106692;27;45490;-84
2022/03/27 06:12:43;;;;;;;;;45.50;37.00;;;;;10.97;52.67;102067.78;5112804;27;46159;-84
2022/03/27 06:15:08;;;;;;;;;38.00;32.25;;;;;10.88;52.50;102049.97;5110838;27;46436;-84
2022/03/27 06:17:44;;;;;;;;;39.75;37.50;;;;;11.08;52.08;102082.19;5112548;27;45563;-81
2022/03/27 06:20:13;;;;;;;;;38.75;35.50;;;;;11.22;52.14;102099.25;5111657;27;46267;-82
2022/03/27 06:22:40;;;;;;;;;37.50;31.00;;;;;11.26;52.14;102095.88;5114399;27;45269;-82
2022/03/27 06:25:06;;;;;;;;;34.50;32.75;;;;;11.32;51.54;102100.41;5113160;27;46017;-86
2022/03/27 06:27:32;;;;;;;;;46.25;38.00;;;;;11.35;51.69;102100.47;5114931;27;45290;-82
2022/03/27 06:29:57;;;;;;;;;42.25;36.00;;;;;11.40;51.79;102096.22;5113446;27;45654;-83
2022/03/27 06:32:26;;;;;;;;;42.00;37.50;;;;;11.41;51.38;102098.00;5115790;27;46280;-79
2022/03/27 06:34:57;;;;;;;;;38.50;34.50;;;;;11.45;50.91;102097.22;5121819;27;46316;-82
2022/03/27 06:37:22;;;;;;;;;43.50;37.00;;;;;11.55;50.94;102108.91;5110137;27;45514;-75
2022/03/27 06:39:48;;;;;;;;;33.50;31.50;;;;;11.58;51.49;102104.59;5104181;27;45490;-76
2022/03/27 06:42:13;;;;;;;;;48.00;38.50;;;;;11.66;51.28;102102.16;5107208;27;46798;-75
2022/03/27 06:44:39;;;;;;;;;44.25;35.75;;;;;11.61;51.11;102090.56;5099486;27;47539;-83
2022/03/27 06:47:06;;;;;;;;;39.75;37.50;;;;;11.76;50.67;102106.81;5103813;27;45905;-80
2022/03/27 06:49:32;;;;;;;;;43.75;35.75;;;;;11.84;50.76;102101.75;5122736;27;45455;-83
2022/03/27 06:51:57;;;;;;;;;42.75;37.00;;;;;11.88;51.07;102101.84;5100699;27;45555;-85
2022/03/27 06:54:23;;;;;;;;;44.00;36.25;;;;;11.89;50.45;102095.69;5113293;27;46892;-87
2022/03/27 06:56:48;;;;;;;;;37.75;33.25;;;;;11.96;50.04;102097.63;5117213;27;45579;-83
2022/03/27 06:59:14;;;;;;;;;43.75;37.75;;;;;11.98;50.23;102097.66;5103789;27;46097;-83
2022/03/27 07:04:23;;;;;;;;;43.00;36.50;;;;;12.18;50.59;102099.00;5114031;27;45526;-82
2022/03/27 07:06:48;;;;;;;;;43.75;36.25;;;;;12.23;49.72;102102.66;5109592;27;45370;-86
2022/03/27 07:09:14;;;;;;;;;40.75;36.25;;;;;12.27;49.58;102098.31;5126365;27;45037;-77
2022/03/27 07:11:39;;;;;;;;;47.25;37.00;;;;;12.18;49.71;102077.88;5114563;27;45342;-83
2022/03/27 07:14:05;;;;;;;;;47.50;38.50;;;;;12.31;49.27;102089.63;5111907;27;45465;-79
2022/03/27 07:16:31;;;;;;;;;40.75;36.00;;;;;12.44;49.30;102093.41;5114335;27;45553;-80
2022/03/27 07:18:56;;;;;;;;;41.75;36.50;;;;;12.47;49.12;102096.13;5113375;27;45180;-77
2022/03/27 07:21:22;;;;;;;;;35.25;33.75;;;;;12.59;48.30;102093.75;5112257;27;45518;-82
2022/03/27 07:23:47;;;;;;;;;39.50;35.25;;;;;12.73;48.45;102097.56;5106080;27;45430;-79
2022/03/27 07:26:13;;;;;;;;;43.25;38.00;;;;;12.81;48.07;102095.06;5110830;27;45244;-82
2022/03/27 07:28:38;;;;;;;;;44.25;36.00;;;;;12.88;47.75;102096.09;5110606;27;45446;-81
2022/03/27 07:31:04;;;;;;;;;47.50;38.75;;;;;12.93;48.20;102095.28;5111030;27;45478;-81
2022/03/27 07:33:35;;;;;;;;;45.50;37.50;;;;;13.03;47.43;102099.03;5112556;27;46043;-83
2022/03/27 07:36:01;;;;;;;;;44.25;36.25;;;;;12.87;48.00;102060.81;5104513;27;45324;-81
2022/03/27 07:38:26;;;;;;;;;44.25;35.50;;;;;12.93;47.17;102070.59;5113444;27;45474;-85
2022/03/27 07:40:52;;;;;;;;;43.25;37.25;;;;;13.13;47.88;102104.53;5129464;27;45727;-78
2022/03/27 07:43:18;;;;;;;;;40.25;36.50;;;;;13.29;47.57;102108.38;5132853;27;45957;-80
2022/03/27 07:45:44;;;;;;;;;35.25;32.50;;;;;13.39;46.65;102115.59;5138157;27;44778;-82
2022/03/27 07:48:09;;;;;;;;;40.25;35.50;;;;;13.45;46.66;102108.66;5140744;27;44748;-81
2022/03/27 07:50:35;;;;;;;;;40.00;36.75;;;;;13.57;46.90;102112.38;5130094;27;45297;-78
2022/03/27 07:53:03;;;;;;;;;33.00;31.25;;;;;13.57;46.43;102099.16;5125887;27;46376;-83
2022/03/27 07:55:28;;;;;;;;;41.25;36.00;;;;;13.37;46.40;102043.22;5121838;27;45396;-82
2022/03/27 07:57:56;;;;;;;;;40.75;33.00;;;;;13.63;45.93;102071.91;5120527;27;45485;-83
2022/03/27 08:00:21;;;;;;;;;44.75;38.75;;;;;13.87;46.06;102100.53;5133187;27;45241;-85
2022/03/27 08:02:47;;;;;;;;;46.25;38.00;;;;;13.86;45.24;102080.19;5117949;27;46053;-85
2022/03/27 08:05:22;;;;;;;;;42.75;36.25;;;;;14.14;44.99;102113.28;5119104;27;45411;-84
2022/03/27 08:07:48;;;;;;;;;39.00;33.50;;;;;14.29;45.11;102110.88;5108655;27;45482;-81
2022/03/27 08:10:15;;;;;;;;;41.50;34.50;;;;;14.38;44.69;102108.34;5113368;27;45660;-85
2022/03/27 08:12:42;;;;;;;;;42.25;34.00;;;;;14.45;44.38;102098.75;5117450;27;46192;-83
2022/03/27 08:15:08;;;;;;;;;33.75;33.50;;;;;14.61;44.17;102105.13;5113876;27;45408;-83
2022/03/27 08:17:34;;;;;;;;;40.75;35.50;;;;;14.64;43.87;102087.50;5115544;27;45365;-82
2022/03/27 08:20:02;;;;;;;;;42.75;35.75;;;;;14.86;43.48;102106.31;5128495;27;45487;-80
2022/03/27 08:22:28;;;;;;;;;36.75;31.50;;;;;15.01;42.90;102114.47;5122637;27;45466;-84
2022/03/27 08:24:54;;;;;;;;;39.25;35.75;;;;;15.13;42.30;102113.72;5116328;27;45492;-86
2022/03/27 08:27:20;;;;;;;;;34.50;31.75;;;;;15.22;42.54;102121.78;5121556;27;45467;-86
2022/03/27 08:29:47;;;;;;;;;43.00;33.00;;;;;15.21;42.06;102091.69;5117923;27;45575;-84
2022/03/27 08:32:15;;;;;;;;;39.50;31.75;;;;;15.43;41.96;102118.44;5124186;27;46978;-86
2022/03/27 08:34:45;;;;;;;;;41.75;33.75;;;;;15.56;41.44;102123.00;5124112;27;45595;-84
2022/03/27 08:37:13;;;;;;;;;37.50;33.00;;;;;15.64;41.55;102114.25;5118346;27;45479;-84
2022/03/27 08:39:40;;;;;;;;;37.75;32.75;;;;;15.65;41.19;102097.44;5119292;27;45869;-87
2022/03/27 08:42:07;;;;;;;;;36.25;33.25;;;;;15.91;41.02;102104.69;5124233;27;45832;-80
2022/03/27 08:44:37;;;;;;;;;36.25;31.25;;;;;16.04;40.58;102090.63;5125684;27;45264;-78
2022/03/27 08:47:10;;;;;;;;;28.75;28.25;;;;;16.11;40.00;102068.53;5121539;27;45494;-81
2022/03/27 08:49:38;;;;;;;;;36.00;32.25;;;;;16.78;39.70;102110.56;5128129;27;46928;-81
2022/03/27 08:52:43;;;;;;;;;31.00;30.00;;;;;17.49;38.56;102111.59;5102758;27;47485;-81
2022/03/27 08:55:17;;;;;;;;;34.25;31.50;;;;;19.76;35.03;102102.78;5056345;28;46564;-86
2022/03/27 08:58:00;;;;;;;;;33.75;27.00;;;;;24.55;27.87;102103.72;5051287;28;45568;-80
2022/03/27 09:00:31;;;;;;;;;32.50;30.50;;;;;27.36;24.07;102063.31;5050519;28;45587;-86
2022/03/27 09:03:04;;;;;;;;;33.50;26.50;;;;;30.17;21.22;102080.78;5054393;28;46392;-84
2022/03/27 09:05:29;;;;;;;;;31.00;26.33;;;;;32.05;19.36;102057.22;5053897;27;45694;-83
2022/03/27 09:07:56;;;;;;;;;30.00;29.00;;;;;34.22;17.07;102107.56;5059828;28;45553;-81
2022/03/27 09:10:25;;;;;;;;;27.67;27.00;;;;;35.63;15.82;102122.75;5050419;28;45494;-85
2022/03/27 09:12:51;;;;;;;;;30.00;26.33;;;;;36.33;15.00;102045.06;5036418;28;46952;-83
2022/03/27 09:15:19;;;;;;;;;23.00;21.33;;;;;37.99;13.70;102121.81;5038128;28;45451;-84
2022/03/27 09:18:02;;;;;;;;;25.67;22.67;;;;;38.94;12.93;102105.97;5053480;28;45616;-84
2022/03/27 09:20:50;;;;;;;;;28.50;26.50;;;;;39.85;12.38;102131.56;5053874;28;45660;-88
2022/03/27 09:23:25;;;;;;;;;29.75;29.25;;;;;40.65;11.72;102114.53;5043164;28;46707;-85
2022/03/27 09:26:02;;;;;;;;;25.60;25.60;;;;;41.34;11.73;102101.28;5038325;28;45426;-87
2022/03/27 09:28:39;;;;;;;;;27.40;26.00;;;;;42.07;10.77;102094.50;5052015;28;45428;-89
2022/03/27 09:31:20;;;;;;;;;33.40;25.80;;;;;42.81;10.39;102117.13;5068631;27;45278;-85
2022/03/27 09:33:56;;;;;;;;;24.00;23.80;;;;;43.56;9.88;102103.34;5118515;27;45769;-87
2022/03/27 09:36:33;;;;;;;;;26.80;22.40;;;;;43.37;10.22;102112.84;5119121;27;45266;-89
2022/03/27 09:39:16;;;;;;;;;21.80;21.80;;;;;44.20;9.51;102123.84;5121938;27;45424;-85
2022/03/27 09:41:45;;;;;;;;;27.20;26.40;;;;;44.71;9.30;102121.66;5114476;27;45422;-86
2022/03/27 09:44:36;;;;;;;;;26.80;26.80;;;;;45.07;9.45;102134.03;5113212;27;46318;-87
2022/03/27 09:47:07;;;;;;;;;30.20;27.40;;;;;45.23;9.13;102112.72;5115954;27;45504;-87
2022/03/27 09:49:35;;;;;;;;;30.00;27.40;;;;;45.56;9.15;102118.97;5122512;27;45408;-87
2022/03/27 09:52:28;;;;;;;;;28.60;26.40;;;;;45.87;8.94;102116.13;5105570;27;45420;-90
2022/03/27 09:55:06;;;;;;;;;27.60;26.00;;;;;45.92;8.17;102056.00;5124284;27;46732;-93
2022/03/27 09:57:37;;;;;;;;;25.20;25.20;;;;;46.65;8.32;102117.63;5120908;27;45329;-89
2022/03/27 10:00:37;;;;;;;;;27.00;24.60;;;;;46.71;7.79;102120.47;5120982;27;45490;-91
2022/03/27 10:03:15;;;;;;;;;26.60;24.60;;;;;46.89;7.94;102119.25;5114016;27;45288;-88
2022/03/27 10:05:41;;;;;;;;;29.40;25.80;;;;;46.81;8.47;102064.41;5114649;27;47308;-90
2022/03/27 10:08:09;;;;;;;;;28.00;26.75;;;;;46.19;8.19;102071.25;5118229;27;45471;-87
2022/03/27 10:10:38;;;;;;;;;27.60;26.40;;;;;43.62;9.76;102100.75;5121523;27;44741;-90
2022/03/27 10:13:30;;;;;;;;;26.80;24.40;;;;;43.51;10.05;102065.88;5114611;27;45555;-91
2022/03/27 10:15:59;;;;;;;;;24.00;24.00;;;;;44.66;8.99;102035.16;5227113;22;45545;-91
2022/03/27 10:18:27;;;;;;;;;23.60;23.40;;;;;45.30;8.68;102053.41;5109817;22;45972;-88
2022/03/27 10:20:57;;;;;;;;;23.20;22.60;;;;;45.62;8.37;102029.13;5083530;27;45397;-85
2022/03/27 10:23:26;;;;;;;;;28.00;24.80;;;;;45.65;8.05;102090.88;5083472;27;45404;-90
2022/03/27 10:26:05;;;;;;;;;24.00;22.20;;;;;45.62;8.38;102043.94;5084052;27;45300;-87
2022/03/27 10:28:33;;;;;;;;;26.20;24.60;;;;;45.92;7.50;102030.06;5080532;27;45512;-88
2022/03/27 10:30:59;;;;;;;;;22.40;22.40;;;;;46.15;7.90;102047.59;5096267;27;45291;-88
2022/03/27 10:33:27;;;;;;;;;31.60;27.40;;;;;46.23;7.87;102055.00;5090925;27;45699;-89
2022/03/27 10:36:12;;;;;;;;;22.40;21.40;;;;;46.58;7.79;102072.91;5086531;27;45565;-90
2022/03/27 10:38:47;;;;;;;;;24.60;23.80;;;;;46.46;8.08;102057.72;5082571;27;45249;-88
2022/03/27 10:41:42;;;;;;;;;28.40;25.60;;;;;46.70;7.78;102062.97;5099865;27;45369;-84
2022/03/27 10:44:24;;;;;;;;;30.80;30.00;;;;;45.59;8.14;102047.06;5110019;27;44868;-87
2022/03/27 10:50:02;;;;;;;;;32.40;27.20;;;;;39.11;11.54;102051.19;5136625;22;45445;-86
2022/03/27 10:52:30;;;;;;;;;28.50;27.00;;;;;37.62;11.89;102014.97;5087567;27;45440;-85
2022/03/27 10:55:07;;;;;;;;;25.00;23.00;;;;;35.52;13.14;101982.91;5105467;27;45869;-88
2022/03/27 10:57:36;;;;;;;;;34.20;28.40;;;;;33.77;14.39;102011.31;5122086;27;46153;-87
2022/03/27 11:00:08;;;;;;;;;31.00;27.40;;;;;32.54;15.20;102045.97;5112233;27;45471;-89
2022/03/27 11:02:53;;;;;;;;;32.00;25.80;;;;;31.18;16.36;102035.19;5115379;27;45593;-84
2022/03/27 11:05:36;;;;;;;;;27.20;25.80;;;;;30.23;17.32;102004.31;5108460;27;45382;-84
2022/03/27 11:08:17;;;;;;;;;30.60;26.20;;;;;29.33;18.38;102009.06;5117950;27;45400;-89
2022/03/27 11:10:49;;;;;;;;;32.80;28.20;;;;;28.65;18.60;102021.44;5111037;27;45491;-85
2022/03/27 11:13:27;;;;;;;;;24.40;23.40;;;;;27.94;19.61;102022.94;5126774;27;45455;-82
2022/03/27 11:16:09;;;;;;;;;29.50;28.25;;;;;27.43;19.74;102021.50;5098528;27;45516;-87
2022/03/27 11:18:46;;;;;;;;;31.25;26.00;;;;;26.75;20.27;101984.66;5102913;27;46535;-85
2022/03/27 11:21:31;;;;;;;;;34.25;31.75;;;;;26.64;20.79;102025.63;5129299;27;45280;-86
2022/03/27 11:24:02;;;;;;;;;33.00;31.50;;;;;26.21;21.41;102018.25;5099915;27;45255;-83